Time;durP1;ratioP1;P1;durP2;ratioP2;P2;SDS_P1;SDS_P2;PMS_P1;PMS_P2;Temp;Humidity;BMP_temperature;BMP_pressure;BME280_temperature;BME280_humidity;BME280_pressure;Samples;Min_cycle;Max_cycle;Signal;HPM_P1;HPM_P2
2023/03/31 00:01:29;;;;;;;9.88;3.08;;;19.10;51.30;;;;;;5132672;27;20294;-75
2023/03/31 00:04:05;;;;;;;12.02;3.10;;;19.10;51.30;;;;;;5075277;27;20223;-74
2023/03/31 00:06:40;;;;;;;8.73;2.58;;;19.10;51.30;;;;;;5116345;27;20248;-74
2023/03/31 00:09:11;;;;;;;10.68;3.53;;;19.10;51.30;;;;;;5111971;28;20629;-75
2023/03/31 00:11:52;;;;;;;8.55;2.47;;;19.00;51.30;;;;;;5074955;28;20221;-74
2023/03/31 00:14:23;;;;;;;15.13;3.63;;;19.00;51.30;;;;;;5111464;28;20258;-76
2023/03/31 00:17:03;;;;;;;11.52;3.42;;;19.00;51.30;;;;;;5074328;28;20235;-74
2023/03/31 00:19:32;;;;;;;13.32;2.85;;;19.00;51.30;;;;;;5078182;28;20246;-73
2023/03/31 00:22:10;;;;;;;13.32;3.03;;;19.00;51.40;;;;;;5039500;28;20816;-76
2023/03/31 00:24:40;;;;;;;15.55;3.70;;;19.00;51.40;;;;;;5069459;28;20570;-74
2023/03/31 00:27:18;;;;;;;17.88;3.33;;;19.00;51.40;;;;;;5027085;28;20201;-74
2023/03/31 00:29:49;;;;;;;12.75;3.78;;;19.00;51.40;;;;;;5029061;28;20262;-73
2023/03/31 00:32:17;;;;;;;15.45;3.58;;;19.00;51.40;;;;;;5110709;28;20632;-74
2023/03/31 00:34:52;;;;;;;17.05;3.53;;;19.00;51.50;;;;;;5110717;28;20250;-74
2023/03/31 00:37:27;;;;;;;18.45;4.05;;;19.00;51.50;;;;;;5043397;28;20595;-74
2023/03/31 00:39:58;;;;;;;13.23;3.65;;;19.00;51.50;;;;;;5077203;28;20189;-74
2023/03/31 00:42:45;;;;;;;15.98;4.07;;;19.00;51.50;;;;;;5110628;28;20270;-74
2023/03/31 00:45:34;;;;;;;15.43;4.00;;;19.00;51.50;;;;;;5111235;28;20177;-73
2023/03/31 00:48:08;;;;;;;12.75;3.58;;;19.00;51.50;;;;;;5103792;28;20227;-74
2023/03/31 00:50:43;;;;;;;16.90;4.50;;;19.00;51.50;;;;;;5102389;28;20207;-74
2023/03/31 00:56:23;;;;;;;16.98;4.10;;;19.00;51.60;;;;;;5110643;28;20208;-76
2023/03/31 00:58:58;;;;;;;15.48;4.32;;;19.00;51.60;;;;;;5109944;28;20219;-73
2023/03/31 01:07:22;;;;;;;16.33;4.47;;;18.90;51.50;;;;;;5044770;28;20264;-74
2023/03/31 01:09:59;;;;;;;19.33;4.45;;;19.00;51.70;;;;;;5087347;28;20189;-74
2023/03/31 01:12:28;;;;;;;19.55;4.88;;;18.90;51.50;;;;;;5086891;28;20247;-74
2023/03/31 01:15:13;;;;;;;22.13;5.38;;;18.90;51.50;;;;;;5087618;28;20202;-74
2023/03/31 01:17:44;;;;;;;19.10;4.82;;;18.90;51.60;;;;;;5023006;28;20218;-74
2023/03/31 01:20:24;;;;;;;21.63;4.88;;;18.90;51.50;;;;;;5087439;28;20205;-76
2023/03/31 01:23:25;;;;;;;14.95;3.70;;;18.90;51.50;;;;;;5027132;28;20701;-76
2023/03/31 01:26:49;;;;;;;13.77;4.18;;;18.90;51.50;;;;;;5028382;28;20298;-76
2023/03/31 01:29:39;;;;;;;19.25;4.10;;;18.90;51.50;;;;;;5026360;28;20237;-76
2023/03/31 01:32:55;;;;;;;22.23;4.53;;;18.90;51.50;;;;;;5020839;28;20580;-76
2023/03/31 01:35:52;;;;;;;18.02;4.45;;;18.90;51.50;;;;;;5051756;28;20195;-76
2023/03/31 01:39:03;;;;;;;16.08;4.07;;;18.90;51.50;;;;;;5070989;28;20222;-76
2023/03/31 01:41:50;;;;;;;16.30;4.47;;;18.90;51.50;;;;;;5048454;28;20234;-76
2023/03/31 01:44:33;;;;;;;24.35;5.05;;;18.90;51.50;;;;;;5002622;28;20227;-76
2023/03/31 01:47:07;;;;;;;21.75;5.38;;;18.90;51.50;;;;;;5067719;28;20191;-75
2023/03/31 01:49:46;;;;;;;16.05;4.20;;;18.90;51.50;;;;;;4979353;28;20535;-76
2023/03/31 01:52:26;;;;;;;21.80;5.50;;;18.90;51.50;;;;;;5008307;28;20196;-76
2023/03/31 01:54:58;;;;;;;25.67;4.82;;;18.90;51.50;;;;;;5011043;28;20220;-76
2023/03/31 01:57:37;;;;;;;22.33;5.05;;;18.90;51.60;;;;;;4977951;28;20193;-76
2023/03/31 02:00:11;;;;;;;17.25;4.97;;;18.90;51.50;;;;;;4978552;28;20288;-76
2023/03/31 02:02:45;;;;;;;19.83;4.88;;;18.90;51.50;;;;;;4962376;28;20247;-76
2023/03/31 02:05:18;;;;;;;23.48;4.75;;;18.90;51.60;;;;;;5011240;28;20235;-76
2023/03/31 02:07:52;;;;;;;22.10;4.63;;;18.80;51.40;;;;;;5080479;27;20213;-76
2023/03/31 02:10:24;;;;;;;20.63;4.43;;;18.90;51.50;;;;;;5134391;27;20224;-76
2023/03/31 02:13:02;;;;;;;18.70;4.72;;;18.80;51.40;;;;;;5134602;27;20293;-76
2023/03/31 02:15:46;;;;;;;21.40;4.63;;;18.90;51.50;;;;;;5134009;27;20188;-76
2023/03/31 02:18:19;;;;;;;23.05;5.20;;;18.80;51.40;;;;;;5097229;27;20223;-76
2023/03/31 02:20:50;;;;;;;18.02;4.60;;;18.80;51.40;;;;;;5115624;27;20581;-76
2023/03/31 02:23:25;;;;;;;25.77;5.13;;;18.90;51.60;;;;;;5124642;27;20219;-76
2023/03/31 02:26:00;;;;;;;22.52;4.85;;;18.90;51.60;;;;;;5073533;28;20204;-76
2023/03/31 02:28:31;;;;;;;22.08;5.50;;;18.80;51.40;;;;;;5088468;28;20216;-76
2023/03/31 02:31:18;;;;;;;20.05;4.68;;;18.80;51.40;;;;;;5090478;28;20251;-76
2023/03/31 02:33:47;;;;;;;21.90;5.25;;;18.80;51.40;;;;;;5060961;28;20218;-76
2023/03/31 02:36:23;;;;;;;21.35;4.88;;;18.90;51.50;;;;;;5061354;28;20277;-73
2023/03/31 02:38:56;;;;;;;20.90;5.72;;;18.80;51.40;;;;;;5090199;28;20254;-76
2023/03/31 02:41:34;;;;;;;20.35;4.65;;;18.80;51.40;;;;;;5090237;28;20209;-76
2023/03/31 02:44:07;;;;;;;19.25;4.55;;;18.80;51.40;;;;;;5093253;27;20221;-76
2023/03/31 02:46:37;;;;;;;21.73;5.05;;;18.80;51.30;;;;;;5089767;28;20932;-76
2023/03/31 02:49:08;;;;;;;17.20;4.70;;;18.80;51.30;;;;;;5049929;28;20279;-76
2023/03/31 02:52:12;;;;;;;20.60;4.63;;;18.80;51.40;;;;;;5072095;28;20244;-76
2023/03/31 02:55:17;;;;;;;19.98;4.93;;;18.80;51.30;;;;;;5088142;28;20743;-76
2023/03/31 02:58:18;;;;;;;19.90;5.15;;;18.80;51.30;;;;;;5089279;28;20205;-76
2023/03/31 03:01:30;;;;;;;22.52;4.22;;;18.80;51.30;;;;;;5090052;28;20221;-76
2023/03/31 03:04:15;;;;;;;16.63;4.43;;;18.80;51.30;;;;;;5037415;28;20279;-76
2023/03/31 03:06:56;;;;;;;23.23;4.70;;;18.80;51.30;;;;;;5130677;27;20203;-76
2023/03/31 03:10:05;;;;;;;18.67;4.65;;;18.80;51.30;;;;;;5124385;27;20218;-76
2023/03/31 03:12:47;;;;;;;26.75;5.72;;;18.80;51.30;;;;;;5109299;27;20206;-76
2023/03/31 03:15:25;;;;;;;21.30;5.05;;;18.80;51.30;;;;;;5086299;27;20209;-76
2023/03/31 03:18:03;;;;;;;18.38;5.10;;;18.80;51.30;;;;;;5133540;27;20203;-73
2023/03/31 03:20:40;;;;;;;18.92;4.63;;;18.80;51.30;;;;;;5134990;27;20218;-76
2023/03/31 03:25:52;;;;;;;22.13;4.97;;;18.80;51.20;;;;;;5113481;27;20350;-73
2023/03/31 03:28:21;;;;;;;25.30;4.88;;;18.80;51.20;;;;;;5114535;27;20230;-76
2023/03/31 03:30:59;;;;;;;21.80;4.60;;;18.80;51.20;;;;;;5099891;27;20578;-76
2023/03/31 03:33:36;;;;;;;17.95;4.47;;;18.80;51.20;;;;;;5152725;27;20209;-76
2023/03/31 03:36:07;;;;;;;20.77;4.72;;;18.70;51.10;;;;;;5152604;27;20190;-76
2023/03/31 03:38:38;;;;;;;21.88;5.10;;;18.70;51.10;;;;;;5081566;27;20224;-73
2023/03/31 03:41:13;;;;;;;20.50;4.72;;;18.70;51.10;;;;;;5096804;27;20544;-75
2023/03/31 03:43:44;;;;;;;16.58;4.43;;;18.70;51.10;;;;;;5082154;27;20246;-76
2023/03/31 03:46:22;;;;;;;24.20;5.30;;;18.70;51.10;;;;;;5134325;27;20285;-76
2023/03/31 03:48:53;;;;;;;18.48;4.72;;;18.70;51.10;;;;;;5151548;27;20215;-73
2023/03/31 03:51:25;;;;;;;20.83;4.63;;;18.70;51.10;;;;;;5152861;27;20721;-76
2023/03/31 03:54:01;;;;;;;22.13;5.18;;;18.70;51.10;;;;;;5152108;27;20215;-76
2023/03/31 03:56:33;;;;;;;23.52;4.95;;;18.70;51.00;;;;;;5099652;27;20248;-73
2023/03/31 03:59:06;;;;;;;19.88;5.07;;;18.70;51.00;;;;;;5152793;27;20212;-73
2023/03/31 04:01:36;;;;;;;20.45;4.75;;;18.70;51.00;;;;;;5066943;27;20215;-73
2023/03/31 04:04:09;;;;;;;24.63;4.88;;;18.70;51.00;;;;;;5100721;27;20251;-73
2023/03/31 04:06:43;;;;;;;21.52;4.78;;;18.70;51.00;;;;;;5115051;27;20207;-73
2023/03/31 04:09:13;;;;;;;18.80;4.97;;;18.70;51.00;;;;;;5152542;27;20266;-73
2023/03/31 04:11:41;;;;;;;20.67;4.88;;;18.70;51.00;;;;;;5097466;27;20207;-74
2023/03/31 04:14:10;;;;;;;24.85;4.95;;;18.70;51.00;;;;;;5116234;27;20224;-73
2023/03/31 04:19:27;;;;;;;22.27;4.55;;;18.70;51.10;;;;;;5152599;27;20251;-74
2023/03/31 04:22:03;;;;;;;26.05;6.05;;;18.60;50.90;;;;;;5145078;27;20242;-76
2023/03/31 04:27:17;;;;;;;21.27;5.38;;;18.70;51.00;;;;;;5097216;27;20195;-73
2023/03/31 04:29:46;;;;;;;22.63;5.35;;;18.70;51.00;;;;;;5152330;27;20215;-76
2023/03/31 04:32:20;;;;;;;17.17;4.68;;;18.70;51.00;;;;;;5151300;27;20180;-76
2023/03/31 04:35:02;;;;;;;21.58;5.68;;;18.70;51.00;;;;;;5149942;27;20211;-73
2023/03/31 04:37:37;;;;;;;20.02;5.13;;;18.70;51.00;;;;;;5098292;27;20703;-76
2023/03/31 04:40:10;;;;;;;17.45;4.82;;;18.70;51.00;;;;;;5131893;27;20215;-73
2023/03/31 04:42:41;;;;;;;23.55;5.45;;;18.70;51.00;;;;;;5134353;27;20208;-73
2023/03/31 04:45:11;;;;;;;17.55;4.43;;;18.70;51.10;;;;;;5097354;27;20216;-73
2023/03/31 04:47:42;;;;;;;18.35;4.15;;;18.60;51.00;;;;;;5099731;27;20223;-76
2023/03/31 04:50:18;;;;;;;22.05;4.88;;;18.70;51.10;;;;;;5152022;27;20335;-73
2023/03/31 04:52:48;;;;;;;23.65;5.40;;;18.70;51.10;;;;;;5148402;27;20186;-75
2023/03/31 04:55:22;;;;;;;23.05;5.32;;;18.70;51.10;;;;;;5129909;27;20269;-73
2023/03/31 04:57:59;;;;;;;16.52;4.38;;;18.70;51.20;;;;;;5133561;27;20184;-76
2023/03/31 05:00:27;;;;;;;21.02;4.43;;;18.70;51.20;;;;;;5136333;27;20244;-76
2023/03/31 05:03:00;;;;;;;15.73;4.10;;;18.70;51.20;;;;;;5135997;27;20200;-76
2023/03/31 05:05:35;;;;;;;21.42;4.85;;;18.70;51.20;;;;;;5148633;27;20612;-76
2023/03/31 05:08:03;;;;;;;18.42;4.35;;;18.70;51.20;;;;;;5094767;28;20224;-76
2023/03/31 05:10:34;;;;;;;19.73;5.03;;;18.70;51.20;;;;;;5087475;28;20617;-76
2023/03/31 05:13:04;;;;;;;18.48;4.75;;;18.70;51.20;;;;;;5111967;27;20589;-76
2023/03/31 05:15:36;;;;;;;16.17;4.47;;;18.70;51.20;;;;;;5095897;28;20288;-76
2023/03/31 05:18:11;;;;;;;14.75;4.75;;;18.80;51.30;;;;;;5111995;28;20254;-76
2023/03/31 05:20:54;;;;;;;15.57;4.18;;;18.70;51.20;;;;;;5045985;28;20607;-76
2023/03/31 05:23:24;;;;;;;16.55;4.28;;;18.80;51.20;;;;;;5070125;28;20277;-76
2023/03/31 05:25:55;;;;;;;18.17;4.80;;;18.80;51.90;;;;;;5062061;28;20197;-76
2023/03/31 05:28:30;;;;;;;16.25;4.53;;;18.80;51.30;;;;;;5061723;28;20240;-76
2023/03/31 05:31:03;;;;;;;18.15;4.68;;;18.80;51.20;;;;;;5107907;28;20185;-76
2023/03/31 05:33:31;;;;;;;17.55;4.78;;;18.90;51.30;;;;;;5099123;27;20215;-76
2023/03/31 05:36:07;;;;;;;14.52;4.20;;;18.90;51.30;;;;;;5098552;27;20656;-76
2023/03/31 05:38:39;;;;;;;19.52;4.72;;;18.80;51.20;;;;;;5135130;27;20794;-76
2023/03/31 05:41:08;;;;;;;15.60;4.88;;;18.90;51.20;;;;;;5135095;27;20212;-76
2023/03/31 05:43:42;;;;;;;23.38;5.20;;;18.90;51.20;;;;;;5117407;27;20231;-76
2023/03/31 05:46:13;;;;;;;26.13;5.07;;;18.90;51.20;;;;;;5067781;27;20201;-76
2023/03/31 05:48:47;;;;;;;14.95;4.15;;;18.90;51.20;;;;;;5116050;27;20613;-76
2023/03/31 05:51:20;;;;;;;16.85;4.60;;;18.90;51.20;;;;;;5087902;27;20196;-76
2023/03/31 05:53:48;;;;;;;20.58;4.93;;;18.90;51.20;;;;;;5143588;27;20311;-76
2023/03/31 05:59:02;;;;;;;18.85;4.53;;;18.90;51.20;;;;;;5135340;27;20287;-75
2023/03/31 06:01:30;;;;;;;23.67;4.78;;;19.00;51.20;;;;;;5134499;27;20193;-76
2023/03/31 06:04:00;;;;;;;18.10;5.05;;;19.00;51.20;;;;;;5080339;27;20304;-76
2023/03/31 06:06:38;;;;;;;15.95;4.78;;;19.00;51.20;;;;;;5116099;27;20275;-76
2023/03/31 06:09:12;;;;;;;18.33;4.70;;;19.00;51.20;;;;;;5151852;27;20212;-76
2023/03/31 06:11:39;;;;;;;13.13;4.35;;;19.00;51.20;;;;;;5153886;27;20190;-76
2023/03/31 06:14:10;;;;;;;17.88;5.15;;;19.00;51.10;;;;;;5136103;27;20211;-76
2023/03/31 06:16:41;;;;;;;20.45;4.47;;;19.10;51.20;;;;;;5136810;27;20211;-76
2023/03/31 06:19:10;;;;;;;20.67;4.72;;;19.10;51.20;;;;;;5135604;27;20207;-76
2023/03/31 06:21:41;;;;;;;22.67;4.70;;;19.10;51.20;;;;;;5154094;27;20196;-76
2023/03/31 06:24:14;;;;;;;17.52;4.57;;;19.10;51.10;;;;;;5116800;27;20469;-76
2023/03/31 06:26:45;;;;;;;17.60;4.65;;;19.10;51.10;;;;;;5104017;27;20604;-76
2023/03/31 06:29:13;;;;;;;14.60;4.13;;;19.10;51.10;;;;;;5093008;27;20212;-76
2023/03/31 06:31:43;;;;;;;18.48;4.60;;;19.10;51.10;;;;;;5081882;27;20589;-76
2023/03/31 06:34:12;;;;;;;16.83;4.78;;;19.10;51.10;;;;;;5100786;27;20346;-76
2023/03/31 06:36:45;;;;;;;17.13;4.95;;;19.10;51.10;;;;;;5132596;27;20614;-77
2023/03/31 06:39:16;;;;;;;20.00;5.43;;;19.10;51.10;;;;;;5077794;27;20743;-77
2023/03/31 06:41:44;;;;;;;15.27;4.03;;;19.10;51.10;;;;;;5065755;27;20207;-75
2023/03/31 06:44:15;;;;;;;19.88;4.82;;;19.20;51.10;;;;;;5145331;27;20239;-76
2023/03/31 06:46:45;;;;;;;14.57;4.35;;;19.20;51.10;;;;;;5127940;27;20295;-76
2023/03/31 06:49:15;;;;;;;18.50;4.78;;;19.20;51.10;;;;;;5096823;27;20212;-76
2023/03/31 06:51:57;;;;;;;18.55;4.43;;;19.20;51.00;;;;;;5129638;27;20207;-76
2023/03/31 06:54:25;;;;;;;21.42;4.78;;;19.20;51.00;;;;;;5101889;27;20215;-76
2023/03/31 06:59:37;;;;;;;23.40;5.88;;;19.20;51.00;;;;;;5117542;27;20220;-77
2023/03/31 07:02:04;;;;;;;19.67;5.00;;;19.20;50.90;;;;;;5149503;27;20901;-77
2023/03/31 07:04:32;;;;;;;21.48;4.50;;;19.20;50.90;;;;;;5141632;27;20264;-76
2023/03/31 07:07:05;;;;;;;18.45;5.25;;;19.20;50.90;;;;;;5098337;27;20216;-77
2023/03/31 07:09:37;;;;;;;22.58;4.90;;;19.30;51.10;;;;;;5143443;27;20693;-75
2023/03/31 07:12:06;;;;;;;22.02;5.63;;;19.20;51.00;;;;;;5115357;27;20203;-76
2023/03/31 07:14:36;;;;;;;17.92;4.72;;;19.30;51.10;;;;;;5094409;27;20216;-76
2023/03/31 07:17:04;;;;;;;20.05;4.97;;;19.30;51.00;;;;;;5080658;27;20666;-77
2023/03/31 07:19:31;;;;;;;19.05;4.97;;;19.30;51.00;;;;;;5150495;27;20216;-76
2023/03/31 07:22:00;;;;;;;19.67;5.32;;;19.30;51.00;;;;;;5111226;27;20188;-76
2023/03/31 07:24:34;;;;;;;30.92;5.35;;;19.30;51.00;;;;;;5143245;27;20260;-76
2023/03/31 07:27:03;;;;;;;21.60;5.05;;;19.40;51.00;;;;;;5148737;27;20215;-77
2023/03/31 07:29:34;;;;;;;15.80;4.50;;;19.40;51.00;;;;;;5095603;27;20701;-76
2023/03/31 07:32:03;;;;;;;22.38;4.75;;;19.40;51.00;;;;;;5086670;27;20203;-76
2023/03/31 07:34:32;;;;;;;20.60;4.50;;;19.40;50.90;;;;;;5079946;27;20216;-77
2023/03/31 07:37:00;;;;;;;17.35;3.78;;;19.40;50.90;;;;;;5138576;27;20200;-76
2023/03/31 07:39:29;;;;;;;18.35;4.32;;;19.40;50.90;;;;;;5149368;27;20218;-77
2023/03/31 07:42:00;;;;;;;14.15;4.00;;;19.40;50.90;;;;;;5133220;27;20193;-76
2023/03/31 07:44:28;;;;;;;17.92;4.22;;;19.40;51.40;;;;;;5088505;27;20224;-77
2023/03/31 07:46:57;;;;;;;14.88;3.85;;;19.40;51.40;;;;;;5092840;27;20198;-77
2023/03/31 07:49:28;;;;;;;15.77;4.10;;;19.50;50.90;;;;;;5133861;27;20715;-77
2023/03/31 07:51:55;;;;;;;18.75;4.05;;;19.50;50.90;;;;;;5146656;27;20202;-77
2023/03/31 07:54:24;;;;;;;15.02;3.60;;;19.50;50.90;;;;;;5140669;27;20217;-77
2023/03/31 07:56:55;;;;;;;15.98;4.05;;;19.50;50.90;;;;;;5132709;27;20192;-76
2023/03/31 07:59:26;;;;;;;18.08;4.10;;;19.50;50.80;;;;;;5132513;27;20301;-77
2023/03/31 08:01:56;;;;;;;17.02;4.07;;;19.60;50.80;;;;;;5113711;27;20195;-77
2023/03/31 08:04:25;;;;;;;15.88;4.28;;;19.50;50.70;;;;;;5083904;27;20224;-77
2023/03/31 08:06:56;;;;;;;15.65;3.83;;;19.50;50.60;;;;;;5131298;27;20210;-77
2023/03/31 08:09:26;;;;;;;14.02;3.35;;;19.60;50.60;;;;;;5149404;27;20212;-78
2023/03/31 08:11:57;;;;;;;17.10;4.13;;;19.60;50.60;;;;;;5132280;27;20192;-77
2023/03/31 08:14:37;;;;;;;16.88;3.60;;;19.60;50.60;;;;;;5111565;27;20215;-77
2023/03/31 08:17:06;;;;;;;15.80;3.72;;;19.60;50.60;;;;;;5089246;27;20188;-77
2023/03/31 08:19:35;;;;;;;17.75;3.75;;;19.60;50.60;;;;;;5094962;27;20269;-77
2023/03/31 08:22:08;;;;;;;18.00;3.60;;;19.60;50.60;;;;;;5085752;27;20199;-77
2023/03/31 08:24:38;;;;;;;15.40;3.35;;;19.60;50.60;;;;;;5137821;27;20231;-77
2023/03/31 08:27:06;;;;;;;11.95;3.28;;;19.60;50.60;;;;;;5139783;27;20200;-78
2023/03/31 08:29:36;;;;;;;15.13;3.88;;;19.60;50.60;;;;;;5140193;27;20788;-77
2023/03/31 08:32:05;;;;;;;16.17;3.70;;;19.70;50.70;;;;;;5120390;27;20241;-78
2023/03/31 08:34:41;;;;;;;13.02;3.72;;;19.70;50.60;;;;;;5131034;27;20219;-77
2023/03/31 08:37:09;;;;;;;18.60;4.25;;;19.60;50.60;;;;;;5131210;27;20234;-77
2023/03/31 08:39:38;;;;;;;14.13;3.17;;;19.70;50.60;;;;;;5137847;27;20211;-78
2023/03/31 08:42:18;;;;;;;14.48;3.53;;;19.70;51.30;;;;;;5136226;27;20188;-78
2023/03/31 08:44:55;;;;;;;17.48;3.40;;;19.70;50.60;;;;;;5131477;27;20279;-78
2023/03/31 08:47:27;;;;;;;13.10;3.05;;;19.70;50.60;;;;;;5137391;27;20195;-78
2023/03/31 08:49:58;;;;;;;13.27;3.20;;;19.70;50.60;;;;;;5137384;27;20272;-77
2023/03/31 08:52:31;;;;;;;12.30;3.35;;;19.80;50.60;;;;;;5127276;27;20274;-78
2023/03/31 08:55:06;;;;;;;12.52;3.47;;;19.70;50.50;;;;;;5150676;27;20211;-78
2023/03/31 08:57:42;;;;;;;13.38;3.67;;;19.70;50.50;;;;;;5142621;27;20668;-78
2023/03/31 09:00:20;;;;;;;11.45;2.97;;;19.70;50.40;;;;;;5111685;27;20235;-78
2023/03/31 09:03:06;;;;;;;14.65;3.47;;;19.70;50.40;;;;;;5091310;27;20191;-78
2023/03/31 09:05:51;;;;;;;10.02;2.90;;;19.80;50.40;;;;;;5120444;27;20306;-78
2023/03/31 09:08:32;;;;;;;13.70;3.45;;;19.80;50.40;;;;;;5118405;27;20793;-79
2023/03/31 09:11:14;;;;;;;12.07;3.28;;;19.80;50.40;;;;;;5137665;27;20218;-79
2023/03/31 09:14:20;;;;;;;14.50;3.25;;;19.80;50.30;;;;;;5139570;27;20191;-78
2023/03/31 09:16:55;;;;;;;16.65;3.38;;;19.80;50.30;;;;;;4993959;28;20211;-79
2023/03/31 09:19:33;;;;;;;23.02;3.60;;;19.80;50.30;;;;;;5044196;28;20194;-78
2023/03/31 09:22:03;;;;;;;12.77;3.00;;;19.80;50.40;;;;;;5042922;28;20191;-79
2023/03/31 09:24:33;;;;;;;19.35;4.25;;;19.80;50.40;;;;;;5045478;28;20246;-79
2023/03/31 09:27:02;;;;;;;14.60;3.50;;;19.80;50.40;;;;;;5047644;28;20202;-78
2023/03/31 09:29:33;;;;;;;13.63;3.03;;;19.70;50.40;;;;;;5046857;28;20219;-78
2023/03/31 09:32:12;;;;;;;17.60;3.75;;;19.80;50.40;;;;;;5047614;28;20192;-78
2023/03/31 09:34:39;;;;;;;14.00;3.85;;;19.80;50.50;;;;;;5046520;28;20227;-79
2023/03/31 09:37:06;;;;;;;21.40;3.95;;;19.80;50.50;;;;;;5047289;28;20203;-79
2023/03/31 09:39:33;;;;;;;20.65;3.92;;;19.80;50.50;;;;;;5046663;28;20807;-78
2023/03/31 09:42:01;;;;;;;16.08;3.88;;;19.80;50.40;;;;;;5035077;28;20195;-78
2023/03/31 09:44:36;;;;;;;17.38;3.50;;;19.80;50.50;;;;;;5047506;28;20219;-78
2023/03/31 09:47:07;;;;;;;17.48;3.97;;;19.80;51.00;;;;;;5047520;28;20199;-79
2023/03/31 09:49:36;;;;;;;16.88;3.78;;;19.80;50.50;;;;;;5050279;28;20215;-77
2023/03/31 09:52:07;;;;;;;15.00;3.80;;;19.80;50.40;;;;;;5040540;28;20196;-78
2023/03/31 09:54:38;;;;;;;15.40;2.97;;;19.80;50.50;;;;;;5125766;27;20257;-78
2023/03/31 09:57:15;;;;;;;11.18;2.80;;;19.70;50.40;;;;;;5134983;27;20212;-78
2023/03/31 09:59:44;;;;;;;10.07;3.40;;;19.80;50.40;;;;;;5148232;27;20222;-78
2023/03/31 10:02:34;;;;;;;9.85;2.72;;;19.80;50.30;;;;;;5135246;27;20181;-78
2023/03/31 10:05:01;;;;;;;10.75;2.75;;;19.80;50.30;;;;;;5146889;27;20294;-79
2023/03/31 10:07:29;;;;;;;13.48;3.38;;;19.80;50.20;;;;;;5151554;27;20227;-79
2023/03/31 10:09:57;;;;;;;12.10;2.85;;;19.80;50.90;;;;;;5102320;27;20226;-80
2023/03/31 10:12:30;;;;;;;13.68;3.25;;;19.80;50.20;;;;;;5153502;27;20263;-79
2023/03/31 10:15:17;;;;;;;12.23;3.60;;;19.80;50.20;;;;;;5087138;27;20739;-79
2023/03/31 10:17:48;;;;;;;9.77;3.03;;;19.80;50.20;;;;;;5155443;27;20184;-78
2023/03/31 10:20:32;;;;;;;26.25;3.85;;;19.80;50.10;;;;;;5073765;27;20224;-79
2023/03/31 10:23:05;;;;;;;13.20;3.05;;;19.80;50.20;;;;;;5134583;27;20208;-80
2023/03/31 10:25:37;;;;;;;21.73;3.17;;;19.80;50.00;;;;;;5124145;27;20219;-81
2023/03/31 10:28:05;;;;;;;11.80;3.05;;;19.80;50.10;;;;;;5084325;27;20196;-80
2023/03/31 10:30:42;;;;;;;13.93;3.25;;;19.90;50.20;;;;;;5134464;27;20220;-79
2023/03/31 10:33:18;;;;;;;18.08;6.47;;;19.90;50.10;;;;;;5105882;27;20231;-79
2023/03/31 10:35:50;;;;;;;21.55;4.80;;;19.90;50.10;;;;;;5151913;27;20352;-79
2023/03/31 10:38:32;;;;;;;19.90;4.53;;;19.90;50.00;;;;;;5135199;27;20177;-79
2023/03/31 10:41:07;;;;;;;15.73;4.35;;;19.90;50.00;;;;;;5100141;27;20643;-81
2023/03/31 10:43:39;;;;;;;13.82;4.20;;;19.90;50.00;;;;;;5134781;27;20363;-80
2023/03/31 10:46:09;;;;;;;22.80;3.75;;;19.90;50.00;;;;;;5134545;27;20215;-79
2023/03/31 10:48:43;;;;;;;22.00;4.70;;;20.00;50.00;;;;;;5085421;27;20587;-79
2023/03/31 10:51:17;;;;;;;21.48;4.20;;;19.90;50.00;;;;;;5149303;27;20216;-81
2023/03/31 10:53:47;;;;;;;16.85;3.70;;;20.00;50.00;;;;;;5090278;27;20245;-80
2023/03/31 10:56:36;;;;;;;20.60;4.10;;;19.90;49.90;;;;;;5143613;27;20208;-80
2023/03/31 10:59:40;;;;;;;17.08;4.18;;;20.00;49.90;;;;;;5135902;27;20195;-80
2023/03/31 11:02:45;;;;;;;17.10;3.63;;;20.00;49.90;;;;;;5142757;27;20248;-79
2023/03/31 11:05:24;;;;;;;20.42;4.28;;;20.00;49.90;;;;;;5099439;27;20223;-80
2023/03/31 11:08:02;;;;;;;16.50;4.65;;;20.00;49.80;;;;;;5048061;27;20285;-80
2023/03/31 11:11:09;;;;;;;21.48;4.38;;;20.00;49.80;;;;;;5124176;27;20272;-80
2023/03/31 11:13:42;;;;;;;17.13;4.00;;;20.00;49.80;;;;;;5130865;27;20661;-81
2023/03/31 11:16:19;;;;;;;17.35;3.97;;;20.00;49.80;;;;;;5082161;27;20795;-80
2023/03/31 11:19:19;;;;;;;20.65;4.70;;;20.10;49.90;;;;;;5088304;27;20202;-80
2023/03/31 11:22:06;;;;;;;17.25;3.97;;;20.00;49.70;;;;;;5133766;27;20238;-81
2023/03/31 11:25:01;;;;;;;14.32;3.63;;;20.00;49.70;;;;;;5133340;27;20792;-80
2023/03/31 11:27:55;;;;;;;18.27;3.88;;;20.10;49.70;;;;;;5119951;27;20300;-80
2023/03/31 11:30:30;;;;;;;16.60;3.65;;;20.10;49.70;;;;;;5082459;28;20221;-80
2023/03/31 11:33:23;;;;;;;16.42;3.88;;;20.10;49.70;;;;;;5128724;27;20254;-80
2023/03/31 11:36:04;;;;;;;15.48;4.00;;;20.10;49.70;;;;;;5121703;27;20220;-81
2023/03/31 11:38:56;;;;;;;16.50;4.03;;;20.10;49.70;;;;;;5121305;27;20577;-81
2023/03/31 11:41:40;;;;;;;19.17;4.38;;;20.10;49.70;;;;;;5115350;27;20209;-80
2023/03/31 11:44:12;;;;;;;20.08;4.45;;;20.10;49.70;;;;;;5131746;27;20231;-80
2023/03/31 11:46:45;;;;;;;17.70;4.47;;;20.10;49.60;;;;;;5133446;27;20228;-81
2023/03/31 11:49:21;;;;;;;17.25;4.20;;;20.10;49.70;;;;;;5133397;27;20193;-83
2023/03/31 11:51:55;;;;;;;16.80;4.13;;;20.10;49.60;;;;;;5132181;27;20214;-81
2023/03/31 11:54:32;;;;;;;22.58;4.57;;;20.10;49.70;;;;;;5095463;27;20200;-82
2023/03/31 11:57:05;;;;;;;13.38;4.00;;;20.10;49.50;;;;;;5132447;27;20222;-81
2023/03/31 11:59:34;;;;;;;20.40;4.75;;;20.10;49.70;;;;;;5125537;27;20201;-80
2023/03/31 12:02:11;;;;;;;20.52;3.58;;;20.10;49.70;;;;;;5095493;28;20212;-84
2023/03/31 12:04:41;;;;;;;19.67;3.58;;;20.20;49.90;;;;;;5092314;27;20365;-79
2023/03/31 12:07:23;;;;;;;20.30;4.50;;;20.20;49.90;;;;;;5130931;27;20216;-77
2023/03/31 12:10:04;;;;;;;21.80;4.75;;;20.20;50.20;;;;;;5100728;27;20629;-78
2023/03/31 12:12:36;;;;;;;19.42;4.68;;;20.20;50.40;;;;;;5062641;27;20690;-77
2023/03/31 12:15:14;;;;;;;20.90;4.57;;;20.30;50.30;;;;;;5088693;27;20218;-74
2023/03/31 12:17:48;;;;;;;22.58;4.22;;;20.30;51.00;;;;;;5140697;27;20227;-80
2023/03/31 12:20:36;;;;;;;17.67;4.47;;;20.30;50.30;;;;;;5091299;27;20913;-78
2023/03/31 12:23:12;;;;;;;23.77;4.43;;;20.40;50.40;;;;;;5147424;27;20263;-77
2023/03/31 12:26:06;;;;;;;39.58;4.25;;;20.50;50.60;;;;;;5142455;27;20307;-78
2023/03/31 12:28:36;;;;;;;20.80;4.50;;;20.50;50.70;;;;;;5135947;27;20216;-77
2023/03/31 12:31:07;;;;;;;21.20;4.47;;;20.60;50.60;;;;;;5140912;27;20251;-76
2023/03/31 12:33:38;;;;;;;24.35;4.25;;;20.60;50.50;;;;;;5143518;27;20606;-77
2023/03/31 12:36:22;;;;;;;24.33;4.40;;;20.60;50.50;;;;;;5133347;27;20248;-77
2023/03/31 12:39:07;;;;;;;25.80;4.40;;;20.70;50.80;;;;;;5134723;27;20212;-76
2023/03/31 12:41:45;;;;;;;19.63;4.30;;;20.70;50.60;;;;;;5144511;27;20212;-79
2023/03/31 12:44:32;;;;;;;26.95;4.97;;;20.80;50.60;;;;;;5130600;27;20251;-78
2023/03/31 12:47:22;;;;;;;21.48;4.20;;;20.80;50.50;;;;;;5141178;27;20255;-80
2023/03/31 12:50:02;;;;;;;18.42;3.97;;;20.80;50.50;;;;;;5130635;27;20181;-76
2023/03/31 12:52:37;;;;;;;21.05;4.57;;;20.80;50.40;;;;;;5136339;27;20220;-81
2023/03/31 12:55:34;;;;;;;19.92;4.28;;;20.90;50.60;;;;;;5137894;27;20220;-80
2023/03/31 12:58:40;;;;;;;15.30;3.75;;;20.90;50.50;;;;;;5145260;27;20227;-79
2023/03/31 13:01:14;;;;;;;20.98;4.50;;;20.90;50.60;;;;;;5102375;27;20329;-78
2023/03/31 13:04:18;;;;;;;17.83;4.10;;;20.90;50.50;;;;;;5149551;27;20198;-81
2023/03/31 13:07:04;;;;;;;19.20;4.45;;;20.90;50.50;;;;;;5150075;27;20744;-80
2023/03/31 13:09:46;;;;;;;19.80;4.82;;;21.00;50.60;;;;;;5107525;28;20193;-78
2023/03/31 13:12:18;;;;;;;23.08;4.50;;;21.00;50.50;;;;;;5067304;28;20220;-79
2023/03/31 13:14:58;;;;;;;19.73;4.25;;;21.00;50.50;;;;;;5109049;28;20623;-79
2023/03/31 13:17:30;;;;;;;25.45;4.50;;;21.00;50.50;;;;;;5107814;28;20807;-79
2023/03/31 13:20:19;;;;;;;15.13;4.80;;;21.00;50.60;;;;;;5109757;28;20221;-78
2023/03/31 13:22:48;;;;;;;20.50;4.85;;;21.10;50.80;;;;;;5112434;28;20248;-74
2023/03/31 13:25:36;;;;;;;16.83;4.18;;;21.00;50.50;;;;;;5113053;27;20540;-80
2023/03/31 13:28:27;;;;;;;15.23;3.78;;;21.10;50.70;;;;;;5112089;28;20659;-78
2023/03/31 13:30:59;;;;;;;16.65;3.55;;;21.10;50.60;;;;;;5109839;28;20201;-81
2023/03/31 13:33:34;;;;;;;29.63;4.65;;;21.10;50.60;;;;;;5113901;28;20189;-79
2023/03/31 13:36:20;;;;;;;20.15;4.20;;;21.10;50.80;;;;;;5107101;28;20244;-77
2023/03/31 13:39:02;;;;;;;29.90;5.47;;;21.20;50.80;;;;;;5101506;28;20201;-79
2023/03/31 13:41:45;;;;;;;20.67;4.00;;;21.10;50.70;;;;;;5101459;28;20216;-79
2023/03/31 13:44:49;;;;;;;29.73;4.40;;;21.10;50.60;;;;;;5074812;28;20284;-75
2023/03/31 13:51:00;;;;;;;24.00;5.28;;;21.20;50.60;;;;;;5110102;28;20209;-77